sensor_id;sensor_type;location;lat;lon;timestamp;P1;durP1;ratioP1;P2;durP2;ratioP2
26858;SDS011;14429;48.346;16.338;2023-06-05T00:01:47;6.35;;;4.85;;
26858;SDS011;14429;48.346;16.338;2023-06-05T00:04:13;9.80;;;6.18;;
26858;SDS011;14429;48.346;16.338;2023-06-05T00:06:38;5.82;;;3.80;;
26858;SDS011;14429;48.346;16.338;2023-06-05T00:09:05;7.15;;;4.70;;
26858;SDS011;14429;48.346;16.338;2023-06-05T00:11:30;9.55;;;5.70;;
26858;SDS011;14429;48.346;16.338;2023-06-05T00:13:56;13.32;;;6.53;;
26858;SDS011;14429;48.346;16.338;2023-06-05T00:16:23;9.80;;;5.60;;
26858;SDS011;14429;48.346;16.338;2023-06-05T00:18:48;9.10;;;5.22;;
26858;SDS011;14429;48.346;16.338;2023-06-05T00:21:14;11.40;;;6.13;;
26858;SDS011;14429;48.346;16.338;2023-06-05T00:23:39;9.15;;;4.68;;
26858;SDS011;14429;48.346;16.338;2023-06-05T00:26:05;6.60;;;4.05;;
26858;SDS011;14429;48.346;16.338;2023-06-05T00:28:30;7.03;;;4.53;;
26858;SDS011;14429;48.346;16.338;2023-06-05T00:30:55;6.05;;;2.95;;
26858;SDS011;14429;48.346;16.338;2023-06-05T00:33:22;10.80;;;5.30;;
26858;SDS011;14429;48.346;16.338;2023-06-05T00:35:48;10.48;;;4.90;;
26858;SDS011;14429;48.346;16.338;2023-06-05T00:38:13;9.77;;;5.38;;
26858;SDS011;14429;48.346;16.338;2023-06-05T00:40:38;6.90;;;4.13;;
26858;SDS011;14429;48.346;16.338;2023-06-05T00:43:04;12.05;;;4.15;;
26858;SDS011;14429;48.346;16.338;2023-06-05T00:45:29;3.45;;;2.55;;
26858;SDS011;14429;48.346;16.338;2023-06-05T00:47:55;6.88;;;3.85;;
26858;SDS011;14429;48.346;16.338;2023-06-05T00:50:22;5.95;;;4.10;;
26858;SDS011;14429;48.346;16.338;2023-06-05T00:52:47;2.72;;;2.13;;
26858;SDS011;14429;48.346;16.338;2023-06-05T00:55:14;2.83;;;1.88;;
26858;SDS011;14429;48.346;16.338;2023-06-05T00:57:40;4.30;;;2.97;;
26858;SDS011;14429;48.346;16.338;2023-06-05T01:00:06;10.35;;;4.70;;
26858;SDS011;14429;48.346;16.338;2023-06-05T01:02:32;6.43;;;4.30;;
26858;SDS011;14429;48.346;16.338;2023-06-05T01:04:57;5.63;;;4.57;;
26858;SDS011;14429;48.346;16.338;2023-06-05T01:07:24;8.05;;;4.30;;
26858;SDS011;14429;48.346;16.338;2023-06-05T01:09:49;6.97;;;4.50;;
26858;SDS011;14429;48.346;16.338;2023-06-05T01:12:17;8.43;;;5.93;;
26858;SDS011;14429;48.346;16.338;2023-06-05T01:14:49;11.60;;;6.28;;
26858;SDS011;14429;48.346;16.338;2023-06-05T01:17:18;8.02;;;5.28;;
26858;SDS011;14429;48.346;16.338;2023-06-05T01:19:44;8.73;;;5.97;;
26858;SDS011;14429;48.346;16.338;2023-06-05T01:22:09;6.55;;;3.67;;
26858;SDS011;14429;48.346;16.338;2023-06-05T01:24:36;10.63;;;5.80;;
26858;SDS011;14429;48.346;16.338;2023-06-05T01:27:03;10.43;;;6.30;;
26858;SDS011;14429;48.346;16.338;2023-06-05T01:29:37;9.18;;;6.28;;
26858;SDS011;14429;48.346;16.338;2023-06-05T01:32:11;8.50;;;5.95;;
26858;SDS011;14429;48.346;16.338;2023-06-05T01:34:40;11.63;;;6.90;;
26858;SDS011;14429;48.346;16.338;2023-06-05T01:37:09;15.85;;;8.38;;
26858;SDS011;14429;48.346;16.338;2023-06-05T01:39:34;8.30;;;6.13;;
26858;SDS011;14429;48.346;16.338;2023-06-05T01:42:02;14.57;;;7.30;;
26858;SDS011;14429;48.346;16.338;2023-06-05T01:44:30;8.35;;;3.75;;
26858;SDS011;14429;48.346;16.338;2023-06-05T01:46:56;2.13;;;1.92;;
26858;SDS011;14429;48.346;16.338;2023-06-05T01:49:22;5.35;;;2.60;;
26858;SDS011;14429;48.346;16.338;2023-06-05T01:51:47;8.90;;;5.72;;
26858;SDS011;14429;48.346;16.338;2023-06-05T01:54:13;10.38;;;6.47;;
26858;SDS011;14429;48.346;16.338;2023-06-05T01:56:40;7.65;;;5.07;;
26858;SDS011;14429;48.346;16.338;2023-06-05T01:59:05;14.05;;;7.53;;
26858;SDS011;14429;48.346;16.338;2023-06-05T02:01:30;14.20;;;7.38;;
26858;SDS011;14429;48.346;16.338;2023-06-05T02:03:56;9.60;;;5.75;;
26858;SDS011;14429;48.346;16.338;2023-06-05T02:06:21;13.68;;;7.95;;
26858;SDS011;14429;48.346;16.338;2023-06-05T02:08:47;11.57;;;6.95;;
26858;SDS011;14429;48.346;16.338;2023-06-05T02:11:12;12.88;;;7.03;;
26858;SDS011;14429;48.346;16.338;2023-06-05T02:13:39;12.05;;;7.07;;
26858;SDS011;14429;48.346;16.338;2023-06-05T02:16:05;10.15;;;5.95;;
26858;SDS011;14429;48.346;16.338;2023-06-05T02:18:36;10.70;;;6.57;;
26858;SDS011;14429;48.346;16.338;2023-06-05T02:21:01;11.80;;;7.00;;
26858;SDS011;14429;48.346;16.338;2023-06-05T02:23:27;10.57;;;7.15;;
26858;SDS011;14429;48.346;16.338;2023-06-05T02:25:52;10.75;;;6.35;;
26858;SDS011;14429;48.346;16.338;2023-06-05T02:28:17;9.95;;;6.03;;
26858;SDS011;14429;48.346;16.338;2023-06-05T02:30:44;12.13;;;6.20;;
26858;SDS011;14429;48.346;16.338;2023-06-05T02:33:10;10.55;;;6.13;;
26858;SDS011;14429;48.346;16.338;2023-06-05T02:35:36;11.90;;;5.88;;
26858;SDS011;14429;48.346;16.338;2023-06-05T02:38:02;7.25;;;4.20;;
26858;SDS011;14429;48.346;16.338;2023-06-05T02:40:27;10.15;;;6.22;;
26858;SDS011;14429;48.346;16.338;2023-06-05T02:42:53;13.27;;;7.60;;
26858;SDS011;14429;48.346;16.338;2023-06-05T02:45:18;11.80;;;7.10;;
26858;SDS011;14429;48.346;16.338;2023-06-05T02:47:45;15.57;;;7.53;;
26858;SDS011;14429;48.346;16.338;2023-06-05T02:50:11;15.25;;;7.93;;
26858;SDS011;14429;48.346;16.338;2023-06-05T02:52:36;12.90;;;7.65;;
26858;SDS011;14429;48.346;16.338;2023-06-05T02:55:02;14.10;;;7.40;;
26858;SDS011;14429;48.346;16.338;2023-06-05T02:57:27;9.60;;;5.95;;
26858;SDS011;14429;48.346;16.338;2023-06-05T02:59:53;9.07;;;6.00;;
26858;SDS011;14429;48.346;16.338;2023-06-05T03:02:21;11.98;;;7.65;;
26858;SDS011;14429;48.346;16.338;2023-06-05T03:04:48;16.50;;;7.10;;
26858;SDS011;14429;48.346;16.338;2023-06-05T03:07:13;10.05;;;6.80;;
26858;SDS011;14429;48.346;16.338;2023-06-05T03:09:39;3.40;;;2.05;;
26858;SDS011;14429;48.346;16.338;2023-06-05T03:12:04;10.80;;;6.45;;
26858;SDS011;14429;48.346;16.338;2023-06-05T03:14:30;5.05;;;2.95;;
26858;SDS011;14429;48.346;16.338;2023-06-05T03:16:55;7.93;;;4.50;;
26858;SDS011;14429;48.346;16.338;2023-06-05T03:19:21;9.70;;;5.57;;
26858;SDS011;14429;48.346;16.338;2023-06-05T03:21:48;8.07;;;4.18;;
26858;SDS011;14429;48.346;16.338;2023-06-05T03:24:13;5.57;;;3.78;;
26858;SDS011;14429;48.346;16.338;2023-06-05T03:26:39;5.85;;;4.13;;
26858;SDS011;14429;48.346;16.338;2023-06-05T03:29:04;4.53;;;3.20;;
26858;SDS011;14429;48.346;16.338;2023-06-05T03:31:30;10.82;;;5.07;;
26858;SDS011;14429;48.346;16.338;2023-06-05T03:33:55;12.73;;;5.15;;
26858;SDS011;14429;48.346;16.338;2023-06-05T03:36:21;9.80;;;6.00;;
26858;SDS011;14429;48.346;16.338;2023-06-05T03:38:47;9.88;;;5.85;;
26858;SDS011;14429;48.346;16.338;2023-06-05T03:41:13;4.53;;;3.35;;
26858;SDS011;14429;48.346;16.338;2023-06-05T03:43:38;16.60;;;6.00;;
26858;SDS011;14429;48.346;16.338;2023-06-05T03:46:03;10.70;;;5.90;;
26858;SDS011;14429;48.346;16.338;2023-06-05T03:48:29;8.25;;;5.20;;
26858;SDS011;14429;48.346;16.338;2023-06-05T03:50:54;8.65;;;3.63;;
26858;SDS011;14429;48.346;16.338;2023-06-05T03:53:20;5.57;;;3.47;;
26858;SDS011;14429;48.346;16.338;2023-06-05T03:55:46;9.13;;;5.65;;
26858;SDS011;14429;48.346;16.338;2023-06-05T03:58:12;9.93;;;6.05;;
26858;SDS011;14429;48.346;16.338;2023-06-05T04:00:39;11.05;;;6.78;;
26858;SDS011;14429;48.346;16.338;2023-06-05T04:03:04;10.48;;;5.57;;
26858;SDS011;14429;48.346;16.338;2023-06-05T04:05:30;5.13;;;3.10;;
26858;SDS011;14429;48.346;16.338;2023-06-05T04:07:55;9.48;;;6.25;;
26858;SDS011;14429;48.346;16.338;2023-06-05T04:10:20;4.43;;;2.80;;
26858;SDS011;14429;48.346;16.338;2023-06-05T04:12:47;6.28;;;4.72;;
26858;SDS011;14429;48.346;16.338;2023-06-05T04:15:12;6.13;;;3.95;;
26858;SDS011;14429;48.346;16.338;2023-06-05T04:17:38;11.68;;;5.88;;
26858;SDS011;14429;48.346;16.338;2023-06-05T04:20:04;2.72;;;2.13;;
26858;SDS011;14429;48.346;16.338;2023-06-05T04:22:31;18.77;;;6.70;;
26858;SDS011;14429;48.346;16.338;2023-06-05T04:24:56;5.43;;;3.65;;
26858;SDS011;14429;48.346;16.338;2023-06-05T04:27:22;10.80;;;6.53;;
26858;SDS011;14429;48.346;16.338;2023-06-05T04:29:49;13.15;;;6.38;;
26858;SDS011;14429;48.346;16.338;2023-06-05T04:32:14;8.90;;;5.60;;
26858;SDS011;14429;48.346;16.338;2023-06-05T04:34:41;8.55;;;4.15;;
26858;SDS011;14429;48.346;16.338;2023-06-05T04:37:06;12.32;;;6.22;;
26858;SDS011;14429;48.346;16.338;2023-06-05T04:39:31;3.85;;;2.53;;
26858;SDS011;14429;48.346;16.338;2023-06-05T04:41:57;9.13;;;4.38;;
26858;SDS011;14429;48.346;16.338;2023-06-05T04:44:22;8.68;;;4.93;;
26858;SDS011;14429;48.346;16.338;2023-06-05T04:46:49;10.13;;;5.97;;
26858;SDS011;14429;48.346;16.338;2023-06-05T04:49:14;11.25;;;6.30;;
26858;SDS011;14429;48.346;16.338;2023-06-05T04:51:40;11.43;;;6.05;;
26858;SDS011;14429;48.346;16.338;2023-06-05T04:54:06;4.15;;;2.80;;
26858;SDS011;14429;48.346;16.338;2023-06-05T04:56:31;6.88;;;4.32;;
26858;SDS011;14429;48.346;16.338;2023-06-05T04:58:57;16.00;;;6.65;;
26858;SDS011;14429;48.346;16.338;2023-06-05T05:01:22;10.82;;;6.57;;
26858;SDS011;14429;48.346;16.338;2023-06-05T05:03:49;8.70;;;5.50;;
26858;SDS011;14429;48.346;16.338;2023-06-05T05:06:15;6.53;;;2.85;;
26858;SDS011;14429;48.346;16.338;2023-06-05T05:08:40;10.55;;;5.43;;
26858;SDS011;14429;48.346;16.338;2023-06-05T05:11:06;14.73;;;5.95;;
26858;SDS011;14429;48.346;16.338;2023-06-05T05:13:31;12.90;;;5.85;;
26858;SDS011;14429;48.346;16.338;2023-06-05T05:15:56;10.88;;;6.05;;
26858;SDS011;14429;48.346;16.338;2023-06-05T05:18:22;15.90;;;5.72;;
26858;SDS011;14429;48.346;16.338;2023-06-05T05:20:49;11.02;;;5.75;;
26858;SDS011;14429;48.346;16.338;2023-06-05T05:23:14;12.18;;;5.05;;
26858;SDS011;14429;48.346;16.338;2023-06-05T05:25:40;11.57;;;5.60;;
26858;SDS011;14429;48.346;16.338;2023-06-05T05:28:05;13.40;;;4.90;;
26858;SDS011;14429;48.346;16.338;2023-06-05T05:30:31;9.55;;;5.15;;
26858;SDS011;14429;48.346;16.338;2023-06-05T05:32:56;6.78;;;3.72;;
26858;SDS011;14429;48.346;16.338;2023-06-05T05:35:21;7.53;;;4.40;;
26858;SDS011;14429;48.346;16.338;2023-06-05T05:37:48;8.27;;;4.38;;
26858;SDS011;14429;48.346;16.338;2023-06-05T05:40:14;5.00;;;2.67;;
26858;SDS011;14429;48.346;16.338;2023-06-05T05:42:40;6.82;;;4.00;;
26858;SDS011;14429;48.346;16.338;2023-06-05T05:45:06;9.75;;;5.30;;
26858;SDS011;14429;48.346;16.338;2023-06-05T05:47:33;8.32;;;4.72;;
26858;SDS011;14429;48.346;16.338;2023-06-05T05:49:58;4.82;;;2.70;;
26858;SDS011;14429;48.346;16.338;2023-06-05T05:52:23;8.20;;;4.72;;
26858;SDS011;14429;48.346;16.338;2023-06-05T05:54:50;11.45;;;4.43;;
26858;SDS011;14429;48.346;16.338;2023-06-05T05:57:16;6.35;;;3.85;;
26858;SDS011;14429;48.346;16.338;2023-06-05T05:59:41;12.85;;;3.65;;
26858;SDS011;14429;48.346;16.338;2023-06-05T06:02:07;6.82;;;3.83;;
26858;SDS011;14429;48.346;16.338;2023-06-05T06:04:32;6.70;;;3.80;;
26858;SDS011;14429;48.346;16.338;2023-06-05T06:06:57;6.15;;;2.80;;
26858;SDS011;14429;48.346;16.338;2023-06-05T06:09:23;6.25;;;3.67;;
26858;SDS011;14429;48.346;16.338;2023-06-05T06:11:50;6.90;;;3.72;;
26858;SDS011;14429;48.346;16.338;2023-06-05T06:14:15;5.20;;;3.60;;
26858;SDS011;14429;48.346;16.338;2023-06-05T06:16:40;9.20;;;4.63;;
26858;SDS011;14429;48.346;16.338;2023-06-05T06:19:06;13.45;;;3.53;;
26858;SDS011;14429;48.346;16.338;2023-06-05T06:21:31;5.65;;;3.17;;
26858;SDS011;14429;48.346;16.338;2023-06-05T06:23:57;2.17;;;1.95;;
26858;SDS011;14429;48.346;16.338;2023-06-05T06:26:22;6.25;;;3.60;;
26858;SDS011;14429;48.346;16.338;2023-06-05T06:28:49;5.72;;;3.60;;
26858;SDS011;14429;48.346;16.338;2023-06-05T06:31:14;5.90;;;3.30;;
26858;SDS011;14429;48.346;16.338;2023-06-05T06:33:40;3.25;;;1.88;;
26858;SDS011;14429;48.346;16.338;2023-06-05T06:36:05;2.33;;;1.90;;
26858;SDS011;14429;48.346;16.338;2023-06-05T06:38:31;7.35;;;2.95;;
26858;SDS011;14429;48.346;16.338;2023-06-05T06:40:56;6.18;;;2.78;;
26858;SDS011;14429;48.346;16.338;2023-06-05T06:43:22;6.22;;;3.83;;
26858;SDS011;14429;48.346;16.338;2023-06-05T06:45:49;7.28;;;3.08;;
26858;SDS011;14429;48.346;16.338;2023-06-05T06:48:15;11.07;;;3.22;;
26858;SDS011;14429;48.346;16.338;2023-06-05T06:50:40;4.90;;;3.15;;
26858;SDS011;14429;48.346;16.338;2023-06-05T06:53:06;3.00;;;2.47;;
26858;SDS011;14429;48.346;16.338;2023-06-05T06:55:31;9.52;;;3.80;;
26858;SDS011;14429;48.346;16.338;2023-06-05T06:57:56;5.40;;;3.08;;
26858;SDS011;14429;48.346;16.338;2023-06-05T07:00:22;5.20;;;3.17;;
26858;SDS011;14429;48.346;16.338;2023-06-05T07:02:49;7.28;;;4.18;;
26858;SDS011;14429;48.346;16.338;2023-06-05T07:05:14;3.70;;;2.90;;
26858;SDS011;14429;48.346;16.338;2023-06-05T07:07:40;6.38;;;4.15;;
26858;SDS011;14429;48.346;16.338;2023-06-05T07:10:05;7.70;;;3.92;;
26858;SDS011;14429;48.346;16.338;2023-06-05T07:12:31;5.30;;;2.90;;
26858;SDS011;14429;48.346;16.338;2023-06-05T07:14:56;10.73;;;3.35;;
26858;SDS011;14429;48.346;16.338;2023-06-05T07:17:22;5.22;;;3.35;;
26858;SDS011;14429;48.346;16.338;2023-06-05T07:19:49;9.90;;;3.67;;
26858;SDS011;14429;48.346;16.338;2023-06-05T07:22:14;8.68;;;3.55;;
26858;SDS011;14429;48.346;16.338;2023-06-05T07:24:39;7.32;;;4.18;;
26858;SDS011;14429;48.346;16.338;2023-06-05T07:27:05;3.67;;;2.42;;
26858;SDS011;14429;48.346;16.338;2023-06-05T07:29:31;6.72;;;3.65;;
26858;SDS011;14429;48.346;16.338;2023-06-05T07:31:56;5.35;;;3.03;;
26858;SDS011;14429;48.346;16.338;2023-06-05T07:34:23;2.08;;;1.83;;
26858;SDS011;14429;48.346;16.338;2023-06-05T07:36:51;4.80;;;2.60;;
26858;SDS011;14429;48.346;16.338;2023-06-05T07:39:17;6.53;;;3.85;;
26858;SDS011;14429;48.346;16.338;2023-06-05T07:41:43;5.20;;;3.00;;
26858;SDS011;14429;48.346;16.338;2023-06-05T07:44:09;5.07;;;3.00;;
26858;SDS011;14429;48.346;16.338;2023-06-05T07:46:35;5.63;;;3.72;;
26858;SDS011;14429;48.346;16.338;2023-06-05T07:49:01;6.18;;;4.05;;
26858;SDS011;14429;48.346;16.338;2023-06-05T07:51:26;6.38;;;3.97;;
26858;SDS011;14429;48.346;16.338;2023-06-05T07:53:53;2.92;;;1.83;;
26858;SDS011;14429;48.346;16.338;2023-06-05T07:56:18;7.20;;;4.05;;
26858;SDS011;14429;48.346;16.338;2023-06-05T07:58:44;5.18;;;3.30;;
26858;SDS011;14429;48.346;16.338;2023-06-05T08:01:09;6.45;;;3.33;;
26858;SDS011;14429;48.346;16.338;2023-06-05T08:03:35;6.72;;;3.95;;
26858;SDS011;14429;48.346;16.338;2023-06-05T08:06:00;7.05;;;3.08;;
26858;SDS011;14429;48.346;16.338;2023-06-05T08:08:26;8.50;;;3.78;;
26858;SDS011;14429;48.346;16.338;2023-06-05T08:10:53;6.78;;;4.53;;
26858;SDS011;14429;48.346;16.338;2023-06-05T08:13:18;6.35;;;3.63;;
26858;SDS011;14429;48.346;16.338;2023-06-05T08:15:43;5.60;;;3.60;;
26858;SDS011;14429;48.346;16.338;2023-06-05T08:18:09;8.30;;;4.18;;
26858;SDS011;14429;48.346;16.338;2023-06-05T08:20:34;7.57;;;3.40;;
26858;SDS011;14429;48.346;16.338;2023-06-05T08:23:00;7.18;;;4.63;;
26858;SDS011;14429;48.346;16.338;2023-06-05T08:25:25;7.75;;;3.67;;
26858;SDS011;14429;48.346;16.338;2023-06-05T08:27:52;7.15;;;4.28;;
26858;SDS011;14429;48.346;16.338;2023-06-05T08:30:18;6.65;;;3.83;;
26858;SDS011;14429;48.346;16.338;2023-06-05T08:32:44;5.60;;;3.40;;
26858;SDS011;14429;48.346;16.338;2023-06-05T08:35:09;9.75;;;3.78;;
26858;SDS011;14429;48.346;16.338;2023-06-05T08:37:35;6.38;;;3.53;;
26858;SDS011;14429;48.346;16.338;2023-06-05T08:40:01;6.70;;;3.78;;
26858;SDS011;14429;48.346;16.338;2023-06-05T08:42:26;7.50;;;4.25;;
26858;SDS011;14429;48.346;16.338;2023-06-05T08:44:53;5.15;;;2.75;;
26858;SDS011;14429;48.346;16.338;2023-06-05T08:47:19;5.72;;;3.92;;
26858;SDS011;14429;48.346;16.338;2023-06-05T08:49:47;6.13;;;3.60;;
26858;SDS011;14429;48.346;16.338;2023-06-05T08:52:16;7.28;;;4.07;;
26858;SDS011;14429;48.346;16.338;2023-06-05T08:54:44;5.97;;;2.88;;
26858;SDS011;14429;48.346;16.338;2023-06-05T08:57:09;4.72;;;3.00;;
26858;SDS011;14429;48.346;16.338;2023-06-05T08:59:35;8.63;;;3.17;;
26858;SDS011;14429;48.346;16.338;2023-06-05T09:02:01;6.85;;;3.38;;
26858;SDS011;14429;48.346;16.338;2023-06-05T09:04:27;8.95;;;4.55;;
26858;SDS011;14429;48.346;16.338;2023-06-05T09:06:52;2.65;;;2.17;;
26858;SDS011;14429;48.346;16.338;2023-06-05T09:09:18;5.40;;;3.40;;
26858;SDS011;14429;48.346;16.338;2023-06-05T09:11:43;7.75;;;3.50;;
26858;SDS011;14429;48.346;16.338;2023-06-05T09:14:09;3.53;;;2.47;;
26858;SDS011;14429;48.346;16.338;2023-06-05T09:16:35;4.57;;;3.20;;
26858;SDS011;14429;48.346;16.338;2023-06-05T09:19:03;4.57;;;3.42;;
26858;SDS011;14429;48.346;16.338;2023-06-05T09:21:30;5.43;;;3.00;;
26858;SDS011;14429;48.346;16.338;2023-06-05T09:26:45;6.53;;;3.60;;
26858;SDS011;14429;48.346;16.338;2023-06-05T09:29:11;9.48;;;3.55;;
26858;SDS011;14429;48.346;16.338;2023-06-05T09:31:39;7.70;;;3.83;;
26858;SDS011;14429;48.346;16.338;2023-06-05T09:34:07;4.55;;;2.80;;
26858;SDS011;14429;48.346;16.338;2023-06-05T09:36:32;6.07;;;3.72;;
26858;SDS011;14429;48.346;16.338;2023-06-05T09:38:58;3.88;;;2.42;;
26858;SDS011;14429;48.346;16.338;2023-06-05T09:41:23;7.60;;;4.60;;
26858;SDS011;14429;48.346;16.338;2023-06-05T09:43:49;4.40;;;2.65;;
26858;SDS011;14429;48.346;16.338;2023-06-05T09:46:15;4.78;;;2.65;;
26858;SDS011;14429;48.346;16.338;2023-06-05T09:48:41;5.18;;;3.53;;
26858;SDS011;14429;48.346;16.338;2023-06-05T09:51:09;8.32;;;3.60;;
26858;SDS011;14429;48.346;16.338;2023-06-05T09:53:36;5.82;;;3.42;;
26858;SDS011;14429;48.346;16.338;2023-06-05T09:56:08;5.15;;;3.38;;
26858;SDS011;14429;48.346;16.338;2023-06-05T09:58:36;5.03;;;3.35;;
26858;SDS011;14429;48.346;16.338;2023-06-05T10:01:02;11.00;;;2.88;;
26858;SDS011;14429;48.346;16.338;2023-06-05T10:03:31;5.57;;;2.72;;
26858;SDS011;14429;48.346;16.338;2023-06-05T10:05:59;4.18;;;2.15;;
26858;SDS011;14429;48.346;16.338;2023-06-05T10:08:27;2.72;;;2.13;;
26858;SDS011;14429;48.346;16.338;2023-06-05T10:10:53;4.97;;;3.25;;
26858;SDS011;14429;48.346;16.338;2023-06-05T10:13:18;3.97;;;3.13;;
26858;SDS011;14429;48.346;16.338;2023-06-05T10:15:44;4.78;;;3.42;;
26858;SDS011;14429;48.346;16.338;2023-06-05T10:18:11;6.72;;;3.20;;
26858;SDS011;14429;48.346;16.338;2023-06-05T10:20:36;6.05;;;3.97;;
26858;SDS011;14429;48.346;16.338;2023-06-05T10:23:02;7.05;;;3.88;;
26858;SDS011;14429;48.346;16.338;2023-06-05T10:25:31;7.57;;;3.75;;
26858;SDS011;14429;48.346;16.338;2023-06-05T10:28:03;5.53;;;3.80;;
26858;SDS011;14429;48.346;16.338;2023-06-05T10:31:05;6.05;;;3.88;;
26858;SDS011;14429;48.346;16.338;2023-06-05T10:33:51;3.15;;;2.10;;
26858;SDS011;14429;48.346;16.338;2023-06-05T10:36:33;7.57;;;3.50;;
26858;SDS011;14429;48.346;16.338;2023-06-05T10:39:09;8.80;;;3.88;;
26858;SDS011;14429;48.346;16.338;2023-06-05T10:41:37;8.05;;;4.00;;
26858;SDS011;14429;48.346;16.338;2023-06-05T10:44:03;8.20;;;3.42;;
26858;SDS011;14429;48.346;16.338;2023-06-05T10:46:29;8.88;;;4.18;;
26858;SDS011;14429;48.346;16.338;2023-06-05T10:49:09;7.63;;;4.40;;
26858;SDS011;14429;48.346;16.338;2023-06-05T10:51:36;7.40;;;3.65;;
26858;SDS011;14429;48.346;16.338;2023-06-05T10:54:02;5.97;;;4.15;;
26858;SDS011;14429;48.346;16.338;2023-06-05T11:05:03;6.00;;;3.05;;
26858;SDS011;14429;48.346;16.338;2023-06-05T11:07:31;3.92;;;2.83;;
26858;SDS011;14429;48.346;16.338;2023-06-05T11:10:07;8.55;;;3.90;;
26858;SDS011;14429;48.346;16.338;2023-06-05T11:15:34;8.10;;;4.35;;
26858;SDS011;14429;48.346;16.338;2023-06-05T11:20:54;6.30;;;4.25;;
26858;SDS011;14429;48.346;16.338;2023-06-05T11:23:20;8.50;;;4.72;;
26858;SDS011;14429;48.346;16.338;2023-06-05T11:25:45;8.02;;;5.05;;
26858;SDS011;14429;48.346;16.338;2023-06-05T11:28:12;8.80;;;5.55;;
26858;SDS011;14429;48.346;16.338;2023-06-05T11:30:38;7.07;;;4.75;;
26858;SDS011;14429;48.346;16.338;2023-06-05T11:33:06;11.40;;;4.47;;
26858;SDS011;14429;48.346;16.338;2023-06-05T11:35:31;13.00;;;5.80;;
26858;SDS011;14429;48.346;16.338;2023-06-05T11:38:07;5.07;;;3.45;;
26858;SDS011;14429;48.346;16.338;2023-06-05T11:40:33;5.88;;;4.07;;
26858;SDS011;14429;48.346;16.338;2023-06-05T11:43:01;9.55;;;4.40;;
26858;SDS011;14429;48.346;16.338;2023-06-05T11:45:29;8.57;;;4.72;;
26858;SDS011;14429;48.346;16.338;2023-06-05T11:48:03;10.05;;;4.22;;
26858;SDS011;14429;48.346;16.338;2023-06-05T11:50:28;7.40;;;4.18;;
26858;SDS011;14429;48.346;16.338;2023-06-05T11:53:02;15.70;;;5.85;;
26858;SDS011;14429;48.346;16.338;2023-06-05T11:57:54;6.55;;;4.90;;
26858;SDS011;14429;48.346;16.338;2023-06-05T12:00:22;8.52;;;5.68;;
26858;SDS011;14429;48.346;16.338;2023-06-05T12:02:50;6.55;;;4.53;;
26858;SDS011;14429;48.346;16.338;2023-06-05T12:05:15;6.90;;;4.32;;
26858;SDS011;14429;48.346;16.338;2023-06-05T12:07:41;6.75;;;3.85;;
26858;SDS011;14429;48.346;16.338;2023-06-05T12:10:06;11.98;;;4.50;;
26858;SDS011;14429;48.346;16.338;2023-06-05T12:12:33;8.40;;;4.30;;
26858;SDS011;14429;48.346;16.338;2023-06-05T12:15:12;9.90;;;4.63;;
26858;SDS011;14429;48.346;16.338;2023-06-05T12:17:38;6.88;;;4.10;;
26858;SDS011;14429;48.346;16.338;2023-06-05T12:20:06;5.30;;;3.47;;
26858;SDS011;14429;48.346;16.338;2023-06-05T12:22:33;6.30;;;3.90;;
26858;SDS011;14429;48.346;16.338;2023-06-05T12:25:13;6.82;;;4.20;;
26858;SDS011;14429;48.346;16.338;2023-06-05T12:27:39;4.72;;;3.63;;
26858;SDS011;14429;48.346;16.338;2023-06-05T12:30:05;5.40;;;3.92;;
26858;SDS011;14429;48.346;16.338;2023-06-05T12:32:32;4.78;;;3.30;;
26858;SDS011;14429;48.346;16.338;2023-06-05T12:34:57;4.38;;;2.72;;
26858;SDS011;14429;48.346;16.338;2023-06-05T12:37:25;5.57;;;3.33;;
26858;SDS011;14429;48.346;16.338;2023-06-05T12:39:51;3.10;;;2.40;;
26858;SDS011;14429;48.346;16.338;2023-06-05T12:42:16;6.10;;;3.90;;
26858;SDS011;14429;48.346;16.338;2023-06-05T12:44:41;8.52;;;3.85;;
26858;SDS011;14429;48.346;16.338;2023-06-05T12:47:07;8.25;;;3.58;;
26858;SDS011;14429;48.346;16.338;2023-06-05T12:49:33;7.90;;;2.88;;
26858;SDS011;14429;48.346;16.338;2023-06-05T12:51:58;9.13;;;3.70;;
26858;SDS011;14429;48.346;16.338;2023-06-05T12:54:25;4.82;;;3.10;;
26858;SDS011;14429;48.346;16.338;2023-06-05T12:56:51;6.93;;;3.88;;
26858;SDS011;14429;48.346;16.338;2023-06-05T12:59:16;5.82;;;4.45;;
26858;SDS011;14429;48.346;16.338;2023-06-05T13:01:41;6.32;;;3.90;;
26858;SDS011;14429;48.346;16.338;2023-06-05T13:04:07;4.88;;;3.67;;
26858;SDS011;14429;48.346;16.338;2023-06-05T13:06:32;7.22;;;3.42;;
26858;SDS011;14429;48.346;16.338;2023-06-05T13:08:58;5.28;;;3.58;;
26858;SDS011;14429;48.346;16.338;2023-06-05T13:11:24;6.13;;;3.88;;
26858;SDS011;14429;48.346;16.338;2023-06-05T13:13:50;3.35;;;3.00;;
26858;SDS011;14429;48.346;16.338;2023-06-05T13:16:15;5.72;;;4.05;;
26858;SDS011;14429;48.346;16.338;2023-06-05T13:18:41;6.63;;;3.50;;
26858;SDS011;14429;48.346;16.338;2023-06-05T13:21:06;5.43;;;3.88;;
26858;SDS011;14429;48.346;16.338;2023-06-05T13:23:32;4.57;;;3.03;;
26858;SDS011;14429;48.346;16.338;2023-06-05T13:25:58;4.53;;;2.90;;
26858;SDS011;14429;48.346;16.338;2023-06-05T13:28:25;5.28;;;3.40;;
26858;SDS011;14429;48.346;16.338;2023-06-05T13:30:50;5.53;;;3.53;;
26858;SDS011;14429;48.346;16.338;2023-06-05T13:33:16;6.20;;;4.30;;
26858;SDS011;14429;48.346;16.338;2023-06-05T13:35:41;6.35;;;3.70;;
26858;SDS011;14429;48.346;16.338;2023-06-05T13:38:07;4.68;;;3.10;;
26858;SDS011;14429;48.346;16.338;2023-06-05T13:40:32;5.28;;;3.65;;
26858;SDS011;14429;48.346;16.338;2023-06-05T13:42:57;5.30;;;3.35;;
26858;SDS011;14429;48.346;16.338;2023-06-05T13:45:25;4.78;;;3.63;;
26858;SDS011;14429;48.346;16.338;2023-06-05T13:47:50;4.93;;;3.03;;
26858;SDS011;14429;48.346;16.338;2023-06-05T13:50:16;3.90;;;2.63;;
26858;SDS011;14429;48.346;16.338;2023-06-05T13:52:41;4.00;;;2.92;;
26858;SDS011;14429;48.346;16.338;2023-06-05T13:55:07;11.80;;;3.17;;
26858;SDS011;14429;48.346;16.338;2023-06-05T13:57:33;5.57;;;3.47;;
26858;SDS011;14429;48.346;16.338;2023-06-05T13:59:58;6.68;;;3.25;;
26858;SDS011;14429;48.346;16.338;2023-06-05T14:02:25;5.28;;;3.65;;
26858;SDS011;14429;48.346;16.338;2023-06-05T14:04:50;6.28;;;3.08;;
26858;SDS011;14429;48.346;16.338;2023-06-05T14:07:16;4.75;;;3.38;;
26858;SDS011;14429;48.346;16.338;2023-06-05T14:09:41;5.22;;;3.70;;
26858;SDS011;14429;48.346;16.338;2023-06-05T14:12:07;14.10;;;4.07;;
26858;SDS011;14429;48.346;16.338;2023-06-05T14:14:33;4.85;;;3.53;;
26858;SDS011;14429;48.346;16.338;2023-06-05T14:16:58;12.48;;;3.90;;
26858;SDS011;14429;48.346;16.338;2023-06-05T14:19:25;5.25;;;3.28;;
26858;SDS011;14429;48.346;16.338;2023-06-05T14:21:50;5.90;;;2.70;;
26858;SDS011;14429;48.346;16.338;2023-06-05T14:24:15;4.00;;;2.85;;
26858;SDS011;14429;48.346;16.338;2023-06-05T14:26:41;4.70;;;3.10;;
26858;SDS011;14429;48.346;16.338;2023-06-05T14:29:06;6.43;;;4.00;;
26858;SDS011;14429;48.346;16.338;2023-06-05T14:31:32;6.57;;;4.85;;
26858;SDS011;14429;48.346;16.338;2023-06-05T14:33:57;13.85;;;6.03;;
26858;SDS011;14429;48.346;16.338;2023-06-05T14:36:24;10.55;;;6.45;;
26858;SDS011;14429;48.346;16.338;2023-06-05T14:38:49;14.07;;;5.82;;
26858;SDS011;14429;48.346;16.338;2023-06-05T14:41:15;8.90;;;5.50;;
26858;SDS011;14429;48.346;16.338;2023-06-05T14:43:40;8.50;;;4.82;;
26858;SDS011;14429;48.346;16.338;2023-06-05T14:46:05;11.98;;;6.30;;